Skip to Main Content
SEARCH:
Location Air RH Dwp Precip Type Wind Speed Wind Gust Direction Pavement Temperature Date/Time
Hatem Bridge US 40 E/B 62 54 46 None - - No Data Available 59 - 59 10/18/2017 7:46:00 PM
I-270 at I-370 62 48 42 None Calm Calm S 64 - 67 10/18/2017 7:45:00 PM
I-270 at MD-109 54 80 48 None Calm Calm E 59 - 59 10/18/2017 7:45:00 PM
I-495 at American Legion Bridge 53 80 47 None Calm Calm N 65 - 66 10/18/2017 7:45:00 PM
I-68 at MD-219 55 53 38 None 4 mph 7 mph S 58 - 61 10/18/2017 7:45:00 PM
I-68 at Savage Mt 51 69 41 None Calm Calm W 58 - 58 10/18/2017 7:45:00 PM
I-68 at Sideling Hill 57 69 47 None Calm Calm W 62 - 64 10/18/2017 7:45:00 PM
I-68 at WV Line 51 68 41 None Calm 5 mph W 60 - 62 10/18/2017 7:45:00 PM
I-695 at I-83 56 69 46 None Calm 5 mph N 62 - 63 10/18/2017 7:45:00 PM
I-70 at Fred-Wash Co. - - - No Data Available - - No Data Available -
I-70 at I-695 54 74 46 None Calm 7 mph SW 62 - 67 10/18/2017 7:45:00 PM
I-70 at I-81 56 68 46 None Calm 5 mph SE - 10/18/2017 7:45:00 PM
I-70 at MD-27 58 58 44 None Calm 4 mph S 63 - 63 10/18/2017 7:45:00 PM
I-70 at MD-32 51 81 46 None Calm Calm N 61 - 62 10/18/2017 7:45:00 PM
I-83 at MD-137 55 80 49 None Calm Calm N 63 - 63 10/18/2017 7:45:00 PM
I-95 at I-695 NE 61 66 50 None Calm Calm W 62 - 65 10/18/2017 7:46:00 PM
I-95 at Patuxent River 57 72 49 None Calm 6 mph N 66 - 66 10/18/2017 7:45:00 PM
I-95 at Tydings Bridge 59 65 48 None 4 mph 10 mph E - 10/18/2017 7:45:00 PM
I-95/495 at I-295 61 51 43 None Calm 5 mph SE 64 - 68 10/18/2017 7:45:00 PM
I-97 at MD-100 61 64 49 None 4 mph 6 mph S 64 - 65 10/18/2017 7:45:00 PM
I-97 at MD-32 54 76 47 None 7 mph 9 mph N 62 - 63 10/18/2017 7:45:00 PM
MD 20 at MD 21 53 78 47 None Calm Calm SE 63 - 63 10/18/2017 7:45:00 PM
MD 231 at Patuxent River 55 76 47 None Calm 5 mph S 62 - 62 10/18/2017 7:45:00 PM
MD 260 at Cox Rd 52 83 48 None Calm Calm NW 65 - 65 10/18/2017 7:45:00 PM
MD-135 at Salt Dome 52 63 40 None 5 mph 11 mph SE 61 - 61 10/18/2017 7:45:00 PM
MD-140 at MD-97 55 67 44 None Calm 4 mph S 63 - 63 10/18/2017 7:45:00 PM
MD-200 EB at Bonifant Rd 54 75 46 None Calm Calm SE 55 - 56 10/18/2017 7:46:00 PM
MD-200 WB at Muncaster Mill Rd 51 77 44 None Calm Calm N 57 - 59 10/18/2017 7:46:00 PM
MD-213 at Sassafras River 57 84 52 None Calm Calm E 62 - 62 10/18/2017 7:45:00 PM
MD-24 at Rock St Park 53 93 52 None Calm Calm N 54 - 54 10/18/2017 7:45:00 PM
MD-30 at PA Line 56 69 46 None Calm 4 mph SE 63 - 63 10/18/2017 7:45:00 PM
MD-301 at MD-305 53 74 45 None Calm Calm SE 63 - 64 10/18/2017 7:45:00 PM
MD-33 at Knapps Narrows Drawbridge 60 72 51 None Calm 6 mph S 70 - 70 10/18/2017 7:45:00 PM
MD-344 at MD-224 54 81 49 None Calm Calm N 60 - 60 10/18/2017 7:45:00 PM
MD-4 at Patuxent River 60 70 50 None - - No Data Available 63 - 65 10/18/2017 7:45:00 PM
MD-404 at Choptank River 54 77 47 None Calm Calm N 61 - 64 10/18/2017 7:45:00 PM
MD-43 at MD-150 - - - No Data Available - - No Data Available -
MD-51 at Oldtown Salt Dome 52 75 45 None Calm Calm N 69 - 69 10/18/2017 7:45:00 PM
MD-64 at MD-418 - - - No Data Available - - No Data Available -
US-1 at Baltimore / Harford Co. Line 52 88 49 None Calm Calm N 56 - 59 10/18/2017 7:45:00 PM
US-1 at Conowingo Dam 58 76 51 None Calm Calm N 66 - 66 10/18/2017 7:45:00 PM
US-13 at US-113 51 87 47 None Calm Calm SE 64 - 64 10/18/2017 7:45:00 PM
US-13 at US-50 - - - No Data Available - - No Data Available -
US-15 at MD-140 53 73 45 None Calm Calm SW 62 - 63 10/18/2017 7:45:00 PM
US-301 at MD-5 55 72 46 None Calm Calm SE 64 - 64 10/18/2017 7:45:00 PM
US-301 at Potomac 58 76 50 None Calm 4 mph E 64 - 65 10/18/2017 7:45:00 PM
US-301 on HWN Bridge 63 63 50 None 7 mph 10 mph S 60 - 60 10/18/2017 7:46:00 PM
US-340 at MD-180 54 68 44 None Calm Calm N 63 - 64 10/18/2017 7:45:00 PM
US-50 at Choptank 57 78 50 None Calm 4 mph S 62 - 64 10/18/2017 7:45:00 PM
US-50 at I-95 - - - No Data Available - - No Data Available -
US-50 at MD-2 59 68 49 None Calm 4 mph S 61 - 64 10/18/2017 7:45:00 PM
US-50 at MD-331 57 64 45 None Calm Calm S 61 - 65 10/18/2017 7:45:00 PM
US-50 at OC Drawbridge 57 57 42 None Calm 4 mph SW 63 - 63 10/18/2017 7:45:00 PM
US-50 at Table Rock Rd 54 58 40 None 6 mph 9 mph E 62 - 62 10/18/2017 7:45:00 PM
US-50 Kent Narrow Bridge 61 71 52 None 5 mph 7 mph S 64 - 65 10/18/2017 7:45:00 PM
WPL Pier 31 64 48 44 None 4 mph 16 mph W 61 - 61 10/18/2017 7:46:00 PM
Location Air RH Dwp Precip Type Wind Speed Wind Gust Direction Pavement Temperature Date/Time